sensor_id;sensor_type;location;lat;lon;timestamp;temperature;humidity
66343;DHT22;53144;51.524;5.080;2023-04-01T00:00:44;9.55;99.12
66343;DHT22;53144;51.524;5.080;2023-04-01T00:03:09;9.57;99.23
66343;DHT22;53144;51.524;5.080;2023-04-01T00:05:35;9.58;99.07
66343;DHT22;53144;51.524;5.080;2023-04-01T00:08:00;9.58;99.17
66343;DHT22;53144;51.524;5.080;2023-04-01T00:10:26;9.55;99.08
66343;DHT22;53144;51.524;5.080;2023-04-01T00:12:51;9.55;99.14
66343;DHT22;53144;51.524;5.080;2023-04-01T00:15:16;9.51;99.05
66343;DHT22;53144;51.524;5.080;2023-04-01T00:17:41;9.54;99.14
66343;DHT22;53144;51.524;5.080;2023-04-01T00:20:08;9.57;99.17
66343;DHT22;53144;51.524;5.080;2023-04-01T00:22:34;9.57;99.17
66343;DHT22;53144;51.524;5.080;2023-04-01T00:25:00;9.58;99.21
66343;DHT22;53144;51.524;5.080;2023-04-01T00:27:25;9.58;99.19
66343;DHT22;53144;51.524;5.080;2023-04-01T00:29:51;9.55;99.21
66343;DHT22;53144;51.524;5.080;2023-04-01T00:32:16;9.58;99.35
66343;DHT22;53144;51.524;5.080;2023-04-01T00:34:42;9.57;99.08
66343;DHT22;53144;51.524;5.080;2023-04-01T00:37:09;9.57;99.31
66343;DHT22;53144;51.524;5.080;2023-04-01T00:39:35;9.55;99.25
66343;DHT22;53144;51.524;5.080;2023-04-01T00:42:02;9.54;99.20
66343;DHT22;53144;51.524;5.080;2023-04-01T00:44:32;9.58;99.24
66343;DHT22;53144;51.524;5.080;2023-04-01T00:46:59;9.58;99.27
66343;DHT22;53144;51.524;5.080;2023-04-01T00:49:39;9.58;99.36
66343;DHT22;53144;51.524;5.080;2023-04-01T00:52:08;9.61;99.42
66343;DHT22;53144;51.524;5.080;2023-04-01T00:54:36;9.58;99.26
66343;DHT22;53144;51.524;5.080;2023-04-01T00:57:09;9.58;99.31
66343;DHT22;53144;51.524;5.080;2023-04-01T00:59:46;9.54;99.46
66343;DHT22;53144;51.524;5.080;2023-04-01T01:02:13;9.58;99.51
66343;DHT22;53144;51.524;5.080;2023-04-01T01:04:40;9.57;99.46
66343;DHT22;53144;51.524;5.080;2023-04-01T01:10:24;9.52;99.45
66343;DHT22;53144;51.524;5.080;2023-04-01T01:15:48;9.52;99.69
66343;DHT22;53144;51.524;5.080;2023-04-01T01:18:36;9.51;99.39
66343;DHT22;53144;51.524;5.080;2023-04-01T01:26:50;9.45;99.09
66343;DHT22;53144;51.524;5.080;2023-04-01T01:31:56;9.42;99.28
66343;DHT22;53144;51.524;5.080;2023-04-01T01:37:02;9.37;99.02
66343;DHT22;53144;51.524;5.080;2023-04-01T01:39:31;9.32;98.72
66343;DHT22;53144;51.524;5.080;2023-04-01T01:42:02;9.31;98.42
66343;DHT22;53144;51.524;5.080;2023-04-01T01:44:30;9.31;98.45
66343;DHT22;53144;51.524;5.080;2023-04-01T01:46:56;9.32;98.68
66343;DHT22;53144;51.524;5.080;2023-04-01T01:49:22;9.28;98.61
66343;DHT22;53144;51.524;5.080;2023-04-01T01:51:48;9.21;98.55
66343;DHT22;53144;51.524;5.080;2023-04-01T01:54:15;9.24;98.65
66343;DHT22;53144;51.524;5.080;2023-04-01T01:56:44;9.23;98.70
66343;DHT22;53144;51.524;5.080;2023-04-01T01:59:11;9.21;98.80
66343;DHT22;53144;51.524;5.080;2023-04-01T02:01:42;9.21;99.02
66343;DHT22;53144;51.524;5.080;2023-04-01T02:04:09;9.23;99.25
66343;DHT22;53144;51.524;5.080;2023-04-01T02:06:38;9.21;99.23
66343;DHT22;53144;51.524;5.080;2023-04-01T02:09:06;9.20;99.25
66343;DHT22;53144;51.524;5.080;2023-04-01T02:11:54;9.18;99.42
66343;DHT22;53144;51.524;5.080;2023-04-01T02:14:24;9.17;99.47
66343;DHT22;53144;51.524;5.080;2023-04-01T02:16:58;9.18;99.55
66343;DHT22;53144;51.524;5.080;2023-04-01T02:19:33;9.23;99.54
66343;DHT22;53144;51.524;5.080;2023-04-01T02:22:03;9.20;99.64
66343;DHT22;53144;51.524;5.080;2023-04-01T02:24:31;9.17;99.77
66343;DHT22;53144;51.524;5.080;2023-04-01T02:26:58;9.21;99.71
66343;DHT22;53144;51.524;5.080;2023-04-01T02:29:26;9.14;99.76
66343;DHT22;53144;51.524;5.080;2023-04-01T02:31:52;9.17;99.76
66343;DHT22;53144;51.524;5.080;2023-04-01T02:34:20;9.16;99.80
66343;DHT22;53144;51.524;5.080;2023-04-01T02:36:47;9.18;99.80
66343;DHT22;53144;51.524;5.080;2023-04-01T02:39:13;9.16;99.76
66343;DHT22;53144;51.524;5.080;2023-04-01T02:41:43;9.14;99.73
66343;DHT22;53144;51.524;5.080;2023-04-01T02:44:10;9.14;99.68
66343;DHT22;53144;51.524;5.080;2023-04-01T02:46:36;9.16;99.91
66343;DHT22;53144;51.524;5.080;2023-04-01T02:49:02;9.17;99.83
66343;DHT22;53144;51.524;5.080;2023-04-01T02:51:28;9.13;99.83
66343;DHT22;53144;51.524;5.080;2023-04-01T02:53:53;9.13;99.97
66343;DHT22;53144;51.524;5.080;2023-04-01T02:56:19;9.10;99.96
66343;DHT22;53144;51.524;5.080;2023-04-01T02:58:45;9.10;99.87
66343;DHT22;53144;51.524;5.080;2023-04-01T03:01:10;9.07;99.78
66343;DHT22;53144;51.524;5.080;2023-04-01T03:03:36;9.07;99.80
66343;DHT22;53144;51.524;5.080;2023-04-01T03:06:08;9.06;99.87
66343;DHT22;53144;51.524;5.080;2023-04-01T03:08:35;9.10;99.94
66343;DHT22;53144;51.524;5.080;2023-04-01T03:11:01;9.10;99.95
66343;DHT22;53144;51.524;5.080;2023-04-01T03:13:26;9.09;99.92
66343;DHT22;53144;51.524;5.080;2023-04-01T03:15:52;9.10;99.78
66343;DHT22;53144;51.524;5.080;2023-04-01T03:18:18;9.06;99.68
66343;DHT22;53144;51.524;5.080;2023-04-01T03:20:43;9.04;99.62
66343;DHT22;53144;51.524;5.080;2023-04-01T03:23:09;9.04;99.69
66343;DHT22;53144;51.524;5.080;2023-04-01T03:25:34;9.01;99.54
66343;DHT22;53144;51.524;5.080;2023-04-01T03:28:00;9.03;99.76
66343;DHT22;53144;51.524;5.080;2023-04-01T03:30:26;9.01;99.54
66343;DHT22;53144;51.524;5.080;2023-04-01T03:32:51;9.01;99.54
66343;DHT22;53144;51.524;5.080;2023-04-01T03:35:17;9.00;99.64
66343;DHT22;53144;51.524;5.080;2023-04-01T03:37:43;9.00;99.76
66343;DHT22;53144;51.524;5.080;2023-04-01T03:40:08;9.00;99.82
66343;DHT22;53144;51.524;5.080;2023-04-01T03:42:34;8.99;99.75
66343;DHT22;53144;51.524;5.080;2023-04-01T03:45:00;8.91;99.68
66343;DHT22;53144;51.524;5.080;2023-04-01T03:47:25;8.96;99.51
66343;DHT22;53144;51.524;5.080;2023-04-01T03:49:51;8.96;99.49
66343;DHT22;53144;51.524;5.080;2023-04-01T03:52:16;8.94;99.57
66343;DHT22;53144;51.524;5.080;2023-04-01T03:54:41;8.96;99.63
66343;DHT22;53144;51.524;5.080;2023-04-01T03:57:07;8.96;99.72
66343;DHT22;53144;51.524;5.080;2023-04-01T03:59:32;8.90;99.65
66343;DHT22;53144;51.524;5.080;2023-04-01T04:01:58;8.87;99.30
66343;DHT22;53144;51.524;5.080;2023-04-01T04:04:23;8.84;99.57
66343;DHT22;53144;51.524;5.080;2023-04-01T04:06:48;8.84;99.65
66343;DHT22;53144;51.524;5.080;2023-04-01T04:09:14;8.87;99.67
66343;DHT22;53144;51.524;5.080;2023-04-01T04:11:39;8.86;99.85
66343;DHT22;53144;51.524;5.080;2023-04-01T04:14:05;8.84;99.88
66343;DHT22;53144;51.524;5.080;2023-04-01T04:16:30;8.83;99.69
66343;DHT22;53144;51.524;5.080;2023-04-01T04:18:56;8.81;99.69
66343;DHT22;53144;51.524;5.080;2023-04-01T04:21:21;8.77;99.70
66343;DHT22;53144;51.524;5.080;2023-04-01T04:23:47;8.77;99.61
66343;DHT22;53144;51.524;5.080;2023-04-01T04:26:14;8.76;99.62
66343;DHT22;53144;51.524;5.080;2023-04-01T04:28:40;8.77;99.49
66343;DHT22;53144;51.524;5.080;2023-04-01T04:31:05;8.77;99.69
66343;DHT22;53144;51.524;5.080;2023-04-01T04:33:31;8.76;99.63
66343;DHT22;53144;51.524;5.080;2023-04-01T04:35:58;8.75;99.59
66343;DHT22;53144;51.524;5.080;2023-04-01T04:38:24;8.76;99.57
66343;DHT22;53144;51.524;5.080;2023-04-01T04:40:50;8.75;99.59
66343;DHT22;53144;51.524;5.080;2023-04-01T04:43:16;8.75;99.64
66343;DHT22;53144;51.524;5.080;2023-04-01T04:45:42;8.73;99.50
66343;DHT22;53144;51.524;5.080;2023-04-01T04:48:08;8.73;99.71
66343;DHT22;53144;51.524;5.080;2023-04-01T04:50:34;8.73;99.80
66343;DHT22;53144;51.524;5.080;2023-04-01T04:52:59;8.73;99.66
66343;DHT22;53144;51.524;5.080;2023-04-01T04:55:25;8.75;99.72
66343;DHT22;53144;51.524;5.080;2023-04-01T04:57:50;8.70;99.69
66343;DHT22;53144;51.524;5.080;2023-04-01T05:00:16;8.76;99.80
66343;DHT22;53144;51.524;5.080;2023-04-01T05:02:41;8.73;99.64
66343;DHT22;53144;51.524;5.080;2023-04-01T05:05:07;8.72;99.74
66343;DHT22;53144;51.524;5.080;2023-04-01T05:07:33;8.76;99.73
66343;DHT22;53144;51.524;5.080;2023-04-01T05:09:59;8.73;99.77
66343;DHT22;53144;51.524;5.080;2023-04-01T05:12:24;8.72;99.84
66343;DHT22;53144;51.524;5.080;2023-04-01T05:14:50;8.75;99.82
66343;DHT22;53144;51.524;5.080;2023-04-01T05:17:15;8.76;99.89
66343;DHT22;53144;51.524;5.080;2023-04-01T05:19:40;8.77;99.87
66343;DHT22;53144;51.524;5.080;2023-04-01T05:22:06;8.81;99.96
66343;DHT22;53144;51.524;5.080;2023-04-01T05:24:31;8.79;99.99
66343;DHT22;53144;51.524;5.080;2023-04-01T05:26:58;8.79;99.92
66343;DHT22;53144;51.524;5.080;2023-04-01T05:29:24;8.79;99.95
66343;DHT22;53144;51.524;5.080;2023-04-01T05:31:49;8.77;99.90
66343;DHT22;53144;51.524;5.080;2023-04-01T05:34:15;8.79;99.96
66343;DHT22;53144;51.524;5.080;2023-04-01T05:36:41;8.80;99.90
66343;DHT22;53144;51.524;5.080;2023-04-01T05:39:07;8.79;99.99
66343;DHT22;53144;51.524;5.080;2023-04-01T05:41:35;8.83;99.99
66343;DHT22;53144;51.524;5.080;2023-04-01T05:44:00;8.80;99.98
66343;DHT22;53144;51.524;5.080;2023-04-01T05:46:26;8.83;99.99
66343;DHT22;53144;51.524;5.080;2023-04-01T05:48:51;8.81;99.99
66343;DHT22;53144;51.524;5.080;2023-04-01T05:51:16;8.83;99.99
66343;DHT22;53144;51.524;5.080;2023-04-01T05:53:42;8.80;99.99
66343;DHT22;53144;51.524;5.080;2023-04-01T05:56:08;8.80;99.99
66343;DHT22;53144;51.524;5.080;2023-04-01T05:58:35;8.84;99.99
66343;DHT22;53144;51.524;5.080;2023-04-01T06:01:11;8.86;99.99
66343;DHT22;53144;51.524;5.080;2023-04-01T06:03:36;8.89;99.99
66343;DHT22;53144;51.524;5.080;2023-04-01T06:06:02;8.89;99.99
66343;DHT22;53144;51.524;5.080;2023-04-01T06:08:28;8.91;99.99
66343;DHT22;53144;51.524;5.080;2023-04-01T06:14:20;8.91;99.99
66343;DHT22;53144;51.524;5.080;2023-04-01T06:30:41;9.07;99.99
66343;DHT22;53144;51.524;5.080;2023-04-01T06:44:37;9.21;99.99
66343;DHT22;53144;51.524;5.080;2023-04-01T06:47:22;9.27;99.85
66343;DHT22;53144;51.524;5.080;2023-04-01T06:50:12;9.26;99.87
66343;DHT22;53144;51.524;5.080;2023-04-01T06:53:06;9.31;99.63
66343;DHT22;53144;51.524;5.080;2023-04-01T06:55:45;9.31;99.52
66343;DHT22;53144;51.524;5.080;2023-04-01T06:58:23;9.30;99.59
66343;DHT22;53144;51.524;5.080;2023-04-01T07:00:53;9.31;99.63
66343;DHT22;53144;51.524;5.080;2023-04-01T07:03:41;9.30;99.76
66343;DHT22;53144;51.524;5.080;2023-04-01T07:06:09;9.32;99.62
66343;DHT22;53144;51.524;5.080;2023-04-01T07:08:38;9.35;99.51
66343;DHT22;53144;51.524;5.080;2023-04-01T07:11:09;9.37;99.49
66343;DHT22;53144;51.524;5.080;2023-04-01T07:13:40;9.38;99.54
66343;DHT22;53144;51.524;5.080;2023-04-01T07:16:13;9.40;99.27
66343;DHT22;53144;51.524;5.080;2023-04-01T07:19:06;9.41;99.22
66343;DHT22;53144;51.524;5.080;2023-04-01T07:21:40;9.41;99.01
66343;DHT22;53144;51.524;5.080;2023-04-01T07:24:14;9.44;99.23
66343;DHT22;53144;51.524;5.080;2023-04-01T07:26:41;9.47;99.13
66343;DHT22;53144;51.524;5.080;2023-04-01T07:29:13;9.49;99.07
66343;DHT22;53144;51.524;5.080;2023-04-01T07:35:05;9.51;98.70
66343;DHT22;53144;51.524;5.080;2023-04-01T07:37:52;9.52;98.86
66343;DHT22;53144;51.524;5.080;2023-04-01T07:40:42;9.54;98.82
66343;DHT22;53144;51.524;5.080;2023-04-01T07:51:27;9.62;98.44
66343;DHT22;53144;51.524;5.080;2023-04-01T07:54:21;9.57;98.33
66343;DHT22;53144;51.524;5.080;2023-04-01T07:57:13;9.62;98.44
66343;DHT22;53144;51.524;5.080;2023-04-01T08:05:28;9.68;98.25
66343;DHT22;53144;51.524;5.080;2023-04-01T08:16:00;9.72;98.07
66343;DHT22;53144;51.524;5.080;2023-04-01T08:21:10;9.75;97.89
66343;DHT22;53144;51.524;5.080;2023-04-01T08:23:40;9.69;97.70
66343;DHT22;53144;51.524;5.080;2023-04-01T08:26:19;9.79;98.29
66343;DHT22;53144;51.524;5.080;2023-04-01T08:29:11;9.79;97.61
66343;DHT22;53144;51.524;5.080;2023-04-01T08:31:58;9.83;98.09
66343;DHT22;53144;51.524;5.080;2023-04-01T08:34:29;9.88;98.19
66343;DHT22;53144;51.524;5.080;2023-04-01T08:37:03;9.72;97.60
66343;DHT22;53144;51.524;5.080;2023-04-01T08:39:37;9.74;97.93
66343;DHT22;53144;51.524;5.080;2023-04-01T08:47:45;9.68;97.57
66343;DHT22;53144;51.524;5.080;2023-04-01T08:55:54;9.68;98.30
66343;DHT22;53144;51.524;5.080;2023-04-01T09:04:19;9.67;99.11
66343;DHT22;53144;51.524;5.080;2023-04-01T09:06:52;9.69;99.16
66343;DHT22;53144;51.524;5.080;2023-04-01T09:09:31;9.59;99.16
66343;DHT22;53144;51.524;5.080;2023-04-01T09:12:30;9.51;99.41
66343;DHT22;53144;51.524;5.080;2023-04-01T09:21:03;9.62;99.43
66343;DHT22;53144;51.524;5.080;2023-04-01T09:26:39;9.63;99.18
66343;DHT22;53144;51.524;5.080;2023-04-01T09:29:33;9.65;98.94
66343;DHT22;53144;51.524;5.080;2023-04-01T09:32:16;9.75;98.86
66343;DHT22;53144;51.524;5.080;2023-04-01T09:40:37;9.86;98.22
66343;DHT22;53144;51.524;5.080;2023-04-01T09:49:06;9.72;97.74
66343;DHT22;53144;51.524;5.080;2023-04-01T10:17:08;9.79;98.38
66343;DHT22;53144;51.524;5.080;2023-04-01T10:20:02;9.79;98.05
66343;DHT22;53144;51.524;5.080;2023-04-01T10:36:48;9.98;98.11
66343;DHT22;53144;51.524;5.080;2023-04-01T10:42:45;9.96;97.98
66343;DHT22;53144;51.524;5.080;2023-04-01T10:53:55;9.86;97.77
66343;DHT22;53144;51.524;5.080;2023-04-01T10:56:36;9.95;97.69
66343;DHT22;53144;51.524;5.080;2023-04-01T11:02:14;9.99;98.03
66343;DHT22;53144;51.524;5.080;2023-04-01T11:05:19;10.09;98.33
66343;DHT22;53144;51.524;5.080;2023-04-01T11:16:07;9.86;97.59
66343;DHT22;53144;51.524;5.080;2023-04-01T11:19:06;9.82;97.33
66343;DHT22;53144;51.524;5.080;2023-04-01T11:35:38;10.00;97.33
66343;DHT22;53144;51.524;5.080;2023-04-01T11:38:18;10.06;97.70
66343;DHT22;53144;51.524;5.080;2023-04-01T11:40:56;10.10;97.98
66343;DHT22;53144;51.524;5.080;2023-04-01T11:46:25;10.14;97.46
66343;DHT22;53144;51.524;5.080;2023-04-01T11:49:02;10.05;96.96
66343;DHT22;53144;51.524;5.080;2023-04-01T11:56:56;10.13;97.00
66343;DHT22;53144;51.524;5.080;2023-04-01T12:07:50;10.27;97.39
66343;DHT22;53144;51.524;5.080;2023-04-01T12:10:40;10.21;97.36
66343;DHT22;53144;51.524;5.080;2023-04-01T12:15:59;10.27;97.08
66343;DHT22;53144;51.524;5.080;2023-04-01T12:27:31;10.44;96.37
66343;DHT22;53144;51.524;5.080;2023-04-01T12:30:09;10.36;96.21
66343;DHT22;53144;51.524;5.080;2023-04-01T12:38:23;10.20;97.59
66343;DHT22;53144;51.524;5.080;2023-04-01T12:41:07;10.14;97.53
66343;DHT22;53144;51.524;5.080;2023-04-01T12:43:47;10.16;97.48
66343;DHT22;53144;51.524;5.080;2023-04-01T12:53:17;10.20;97.75
66343;DHT22;53144;51.524;5.080;2023-04-01T13:06:32;10.19;97.47
66343;DHT22;53144;51.524;5.080;2023-04-01T13:09:27;10.20;97.70
66343;DHT22;53144;51.524;5.080;2023-04-01T13:12:09;10.21;97.64
66343;DHT22;53144;51.524;5.080;2023-04-01T13:20:03;10.19;97.90
66343;DHT22;53144;51.524;5.080;2023-04-01T13:25:53;10.29;97.78
66343;DHT22;53144;51.524;5.080;2023-04-01T13:28:24;10.29;98.05
66343;DHT22;53144;51.524;5.080;2023-04-01T13:33:44;10.17;98.13
66343;DHT22;53144;51.524;5.080;2023-04-01T13:36:27;10.20;98.21
66343;DHT22;53144;51.524;5.080;2023-04-01T13:41:47;10.14;97.91
66343;DHT22;53144;51.524;5.080;2023-04-01T13:44:32;10.16;98.28
66343;DHT22;53144;51.524;5.080;2023-04-01T13:47:12;10.19;98.32
66343;DHT22;53144;51.524;5.080;2023-04-01T13:50:07;10.23;98.49
66343;DHT22;53144;51.524;5.080;2023-04-01T13:56:30;10.06;98.55
66343;DHT22;53144;51.524;5.080;2023-04-01T13:58:52;10.09;98.50
66343;DHT22;53144;51.524;5.080;2023-04-01T14:10:17;10.02;98.44
66343;DHT22;53144;51.524;5.080;2023-04-01T14:12:55;10.02;98.51
66343;DHT22;53144;51.524;5.080;2023-04-01T14:18:13;9.89;97.84
66343;DHT22;53144;51.524;5.080;2023-04-01T14:20:59;9.95;98.34
66343;DHT22;53144;51.524;5.080;2023-04-01T14:23:49;9.90;98.09
66343;DHT22;53144;51.524;5.080;2023-04-01T14:26:34;9.96;98.46
66343;DHT22;53144;51.524;5.080;2023-04-01T14:32:22;9.95;98.32
66343;DHT22;53144;51.524;5.080;2023-04-01T14:43:21;9.95;97.96
66343;DHT22;53144;51.524;5.080;2023-04-01T14:54:02;9.89;98.39
66343;DHT22;53144;51.524;5.080;2023-04-01T14:57:04;9.89;98.28
66343;DHT22;53144;51.524;5.080;2023-04-01T14:59:30;9.83;98.29
66343;DHT22;53144;51.524;5.080;2023-04-01T15:05:14;9.83;98.73
66343;DHT22;53144;51.524;5.080;2023-04-01T15:10:34;9.88;98.83
66343;DHT22;53144;51.524;5.080;2023-04-01T15:16:17;9.86;98.64
66343;DHT22;53144;51.524;5.080;2023-04-01T15:23:59;9.85;98.61
66343;DHT22;53144;51.524;5.080;2023-04-01T15:35:03;9.89;98.57
66343;DHT22;53144;51.524;5.080;2023-04-01T15:37:54;9.92;98.88
66343;DHT22;53144;51.524;5.080;2023-04-01T15:40:30;9.88;98.79
66343;DHT22;53144;51.524;5.080;2023-04-01T16:08:10;10.05;98.99
66343;DHT22;53144;51.524;5.080;2023-04-01T16:10:59;9.96;99.05
66343;DHT22;53144;51.524;5.080;2023-04-01T16:16:47;9.90;98.76
66343;DHT22;53144;51.524;5.080;2023-04-01T16:19:35;9.90;98.90
66343;DHT22;53144;51.524;5.080;2023-04-01T16:22:26;9.93;99.07
66343;DHT22;53144;51.524;5.080;2023-04-01T16:25:19;9.92;99.16
66343;DHT22;53144;51.524;5.080;2023-04-01T16:31:00;9.89;99.00
66343;DHT22;53144;51.524;5.080;2023-04-01T16:33:52;9.92;99.21
66343;DHT22;53144;51.524;5.080;2023-04-01T16:39:16;9.86;99.18
66343;DHT22;53144;51.524;5.080;2023-04-01T16:41:52;9.92;99.36
66343;DHT22;53144;51.524;5.080;2023-04-01T16:44:24;9.89;99.17
66343;DHT22;53144;51.524;5.080;2023-04-01T16:46:56;9.88;99.19
66343;DHT22;53144;51.524;5.080;2023-04-01T17:02:10;9.78;99.45
66343;DHT22;53144;51.524;5.080;2023-04-01T17:04:45;9.78;99.49
66343;DHT22;53144;51.524;5.080;2023-04-01T17:07:45;9.77;99.71
66343;DHT22;53144;51.524;5.080;2023-04-01T17:18:19;9.71;99.63
66343;DHT22;53144;51.524;5.080;2023-04-01T17:20:59;9.74;99.88
66343;DHT22;53144;51.524;5.080;2023-04-01T17:23:58;9.79;99.92
66343;DHT22;53144;51.524;5.080;2023-04-01T17:26:31;9.75;99.99
66343;DHT22;53144;51.524;5.080;2023-04-01T17:32:05;9.83;99.99
66343;DHT22;53144;51.524;5.080;2023-04-01T17:45:01;9.99;99.89
66343;DHT22;53144;51.524;5.080;2023-04-01T17:47:49;10.03;99.97
66343;DHT22;53144;51.524;5.080;2023-04-01T17:50:28;10.05;99.96
66343;DHT22;53144;51.524;5.080;2023-04-01T18:02:15;10.16;99.16
66343;DHT22;53144;51.524;5.080;2023-04-01T18:05:11;10.07;99.12
66343;DHT22;53144;51.524;5.080;2023-04-01T18:07:56;10.07;99.05
66343;DHT22;53144;51.524;5.080;2023-04-01T18:21:30;10.05;99.44
66343;DHT22;53144;51.524;5.080;2023-04-01T18:24:03;10.06;99.13
66343;DHT22;53144;51.524;5.080;2023-04-01T18:26:34;10.06;99.29
66343;DHT22;53144;51.524;5.080;2023-04-01T18:29:16;9.99;98.70
66343;DHT22;53144;51.524;5.080;2023-04-01T18:31:48;10.03;98.50
66343;DHT22;53144;51.524;5.080;2023-04-01T18:34:21;10.00;98.78
66343;DHT22;53144;51.524;5.080;2023-04-01T18:37:10;9.95;98.86
66343;DHT22;53144;51.524;5.080;2023-04-01T18:39:40;9.93;99.13
66343;DHT22;53144;51.524;5.080;2023-04-01T18:42:24;9.92;98.88
66343;DHT22;53144;51.524;5.080;2023-04-01T18:44:55;9.85;98.83
66343;DHT22;53144;51.524;5.080;2023-04-01T19:24:22;9.63;98.49
66343;DHT22;53144;51.524;5.080;2023-04-01T19:27:03;9.59;98.33
66343;DHT22;53144;51.524;5.080;2023-04-01T19:32:36;9.55;98.03
66343;DHT22;53144;51.524;5.080;2023-04-01T19:38:05;9.52;98.18
66343;DHT22;53144;51.524;5.080;2023-04-01T19:43:46;9.47;98.15
66343;DHT22;53144;51.524;5.080;2023-04-01T19:52:48;9.37;97.92
66343;DHT22;53144;51.524;5.080;2023-04-01T19:55:06;9.41;98.03
66343;DHT22;53144;51.524;5.080;2023-04-01T19:57:48;9.32;98.10
66343;DHT22;53144;51.524;5.080;2023-04-01T20:03:04;9.35;97.71
66343;DHT22;53144;51.524;5.080;2023-04-01T20:16:16;9.24;97.63
66343;DHT22;53144;51.524;5.080;2023-04-01T20:18:55;9.20;96.29
66343;DHT22;53144;51.524;5.080;2023-04-01T20:21:45;9.21;96.94
66343;DHT22;53144;51.524;5.080;2023-04-01T20:26:50;9.20;96.97
66343;DHT22;53144;51.524;5.080;2023-04-01T20:29:35;9.09;96.86
66343;DHT22;53144;51.524;5.080;2023-04-01T20:34:51;9.03;96.12
66343;DHT22;53144;51.524;5.080;2023-04-01T20:45:32;8.94;96.95
66343;DHT22;53144;51.524;5.080;2023-04-01T20:48:07;8.97;96.19
66343;DHT22;53144;51.524;5.080;2023-04-01T20:55:58;8.91;96.16
66343;DHT22;53144;51.524;5.080;2023-04-01T20:58:44;8.94;96.23
66343;DHT22;53144;51.524;5.080;2023-04-01T21:01:34;8.94;95.89
66343;DHT22;53144;51.524;5.080;2023-04-01T21:04:37;8.96;96.22
66343;DHT22;53144;51.524;5.080;2023-04-01T21:07:47;8.94;96.01
66343;DHT22;53144;51.524;5.080;2023-04-01T21:18:43;8.76;95.95
66343;DHT22;53144;51.524;5.080;2023-04-01T21:32:38;8.77;95.76
66343;DHT22;53144;51.524;5.080;2023-04-01T21:51:43;8.58;95.20
66343;DHT22;53144;51.524;5.080;2023-04-01T22:00:13;8.37;96.63
66343;DHT22;53144;51.524;5.080;2023-04-01T22:05:34;8.07;97.38
66343;DHT22;53144;51.524;5.080;2023-04-01T22:37:37;7.97;97.18
66343;DHT22;53144;51.524;5.080;2023-04-01T22:48:30;7.90;97.18
66343;DHT22;53144;51.524;5.080;2023-04-01T22:53:37;7.90;97.52
66343;DHT22;53144;51.524;5.080;2023-04-01T22:56:09;7.83;97.48
66343;DHT22;53144;51.524;5.080;2023-04-01T22:58:47;7.93;97.61
66343;DHT22;53144;51.524;5.080;2023-04-01T23:01:21;7.86;97.47
66343;DHT22;53144;51.524;5.080;2023-04-01T23:03:51;7.80;97.56
66343;DHT22;53144;51.524;5.080;2023-04-01T23:06:21;7.77;96.79
66343;DHT22;53144;51.524;5.080;2023-04-01T23:09:08;7.77;97.01
66343;DHT22;53144;51.524;5.080;2023-04-01T23:11:46;7.76;96.96
66343;DHT22;53144;51.524;5.080;2023-04-01T23:22:10;7.66;96.78
66343;DHT22;53144;51.524;5.080;2023-04-01T23:24:46;7.62;96.57
66343;DHT22;53144;51.524;5.080;2023-04-01T23:27:29;7.58;96.33
66343;DHT22;53144;51.524;5.080;2023-04-01T23:29:56;7.46;96.18
66343;DHT22;53144;51.524;5.080;2023-04-01T23:32:25;7.48;96.22
66343;DHT22;53144;51.524;5.080;2023-04-01T23:35:01;7.50;96.24
66343;DHT22;53144;51.524;5.080;2023-04-01T23:37:27;7.48;95.95
66343;DHT22;53144;51.524;5.080;2023-04-01T23:39:58;7.48;95.79
66343;DHT22;53144;51.524;5.080;2023-04-01T23:42:37;7.46;95.82
66343;DHT22;53144;51.524;5.080;2023-04-01T23:45:14;7.41;96.04
66343;DHT22;53144;51.524;5.080;2023-04-01T23:47:42;7.43;95.62
66343;DHT22;53144;51.524;5.080;2023-04-01T23:50:14;7.39;96.00
66343;DHT22;53144;51.524;5.080;2023-04-01T23:53:02;7.35;95.21
66343;DHT22;53144;51.524;5.080;2023-04-01T23:55:31;7.42;95.95
